ADDS TAF Board (Experimental) INFO Settings
IDs: Format: Expanded Condensed

KSFO - San Francisco Intl, CA, US

Issued at 2102 UTC 26 Aug 2016
Updated at 2322 UTC 26 Aug 2016
Time2256Z 27/00Z 27/01Z 27/02Z 27/03Z 27/04Z 27/05Z 27/06Z 27/07Z 27/08Z 27/09Z 27/10Z 27/11Z 27/12Z
Type OBS PRVL PRVL PRVL PRVL PRVL PRVL PRVL PRVL PRVL PRVL PRVL PRVL PRVL
VIS 10 >6 >6 >6 >6 >6 >6 >6 >6 >6 >6 >6 >6 >6
CIG -- -- -- -- -- 10 10 10 10 10 10 8 8 8
Cover FEW FEW FEW FEW FEW BKN BKN BKN BKN BKN BKN OVC OVC OVC
FltCat VFR VFR VFR VFR VFR MVFR MVFR MVFR MVFR MVFR MVFR IFR IFR IFR
WX -- -- -- -- -- -- -- -- -- -- -- -- -- --
WDir 220 230 230 230 230 270 270 270 270 270 270 260 260 260
WSpd 13 15 15 15 15 10 10 10 10 10 10 5 5 5
WGst -- -- -- -- -- -- -- -- -- -- -- -- -- --
R01/19
XWnd 3 6 6 6 6 9 9 9 9 9 9 4 4 4
HWnd -13 -14 -14 -14 -14 -5 -5 -5 -5 -5 -5 -3 -3 -3
R10/28
XWnd -13 -14 -14 -14 -14 -5 -5 -5 -5 -5 -5 -3 -3 -3
HWnd -3 -6 -6 -6 -6 -9 -9 -9 -9 -9 -9 -4 -4 -4

Raw TAF
KSFO 262102Z 2621/2724 23015KT P6SM FEW025
  FM270400 27010KT P6SM FEW008 BKN010
  FM271000 26005KT P6SM OVC008
  FM271600 16008KT P6SM FEW008 BKN012
  FM271900 29012KT P6SM FEW012


Raw METAR
KSFO 262256Z 22013KT 10SM FEW025 22/12 A2993 RMK AO2 SLP136 T02170122
KSFO 262156Z 21016KT 10SM FEW025 22/13 A2994 RMK AO2 SLP140 T02170128
KSFO 262056Z COR 20015KT 10SM FEW025 22/13 A2995 RMK AO2 SLP143 T02170128 50002

METAR Board
Radar Display
Forecast Discussion

TAF Board Legend

Potential Impact
Threat None Slight Moderate High
Visibility (sm) ≥5.1 5.1>X≥3 3>X≥1 <1
Ceiling (100 ft) ≥30.1 30.1>X≥10 10>X≥5 <5
Wind Speed (kt) <10 10≤X<20 20≤X<30 ≥30
Wind Gust (kt) <15 15≤X<25 25≤X<35 ≥35
Weather No Wx Reported VCTS,-TS,-FZRA,SN TS,FZRA +TS,+FZRA,+SN